Deerfield, WI

1:15 PM CST on March 04, 2015 (GMT -0600)
Cambridge | Change Station
CLOSE
Current Station
Personal Weather Station
Location: Cambridge, WI
Elevation: 883 ft
Nearby Weather Stations

Elev 883 ft 43.00 °N, 89.01 °W | Updated 33 seconds ago

Clear
Clear
26.4 °F
Feels Like 21 °F
N
5.0
Wind Variable Wind from NW

Today
High -- | Low -- °F
--% Chance of Precip.
Yesterday
High -- | Low -- °F
Precip. -- in
6:27 AM 5:49 PM
Waxing Gibbous, 99% visible
Pressure 30.21 in
Visibility 10.0 miles
Clouds Few 15000 ft
Windchill 21 °F
Dew Point 6 °F
Humidity 41%
Rainfall -999.00 in
Snow Depth Not available.
UV 5 out of 12
Pollen .40 out of 12
Air Quality Not available.
Flu Activity Not available.
METAR KMSN 041853Z 29011G18KT 10SM FEW150 M09/M21 A3016 RMK AO2 SLP228 T10891206

More Conditions Fewer Conditions

Pressure 30.21 in
Visibility 10.0 miles
Clouds Few 15000 ft
Windchill 21 °F
Dew Point 6 °F
Humidity 41%
Rainfall -999.00 in
Snow Depth Not available.
UV 5 out of 12
Pollen .40 out of 12
Air Quality Not available.
Flu Activity Not available.
METAR KMSN 041853Z 29011G18KT 10SM FEW150 M09/M21 A3016 RMK AO2 SLP228 T10891206

More Conditions Fewer Conditions

10-Day Weather Forecast

Almanac

Astronomy

Mar. 04, 2015 Rise Set
Actual Time
Civil Twilight
Nautical Twilight
Astronomical Twilight
Moon
Length of Visible Light
Length of Day
Tomorrow will be .
, % of the Moon is Illuminated

Today's Extremes

State Highs State Lows

Community

WunderPhotos

Upload Photos

1,802,543 photos uploaded!

WunderBlogs® & News

Nearby

Air Quality

  Air Quality AQ Index Pollutant
Not available.

Snow Depth

Station Depth Elevation

Earthquake Activity

City Distance Mag. Time & Date
Minimum magnitude displayed is 2.5.

Coastal Water Temperatures

Place Temperature

Nearby Weather Stations